createdAt,value
2022-08-12T00:05:35.363Z,27.87
2022-08-12T00:11:28.683Z,27.85
2022-08-12T00:17:12.910Z,27.82
2022-08-12T00:22:58.941Z,27.77
2022-08-12T00:28:43.418Z,27.72
2022-08-12T00:34:27.010Z,27.67
2022-08-12T00:40:15.338Z,27.63
2022-08-12T00:45:58.910Z,27.58
2022-08-12T00:51:43.018Z,27.54
2022-08-12T00:57:29.146Z,27.51
2022-08-12T01:03:13.563Z,27.45
2022-08-12T01:08:57.078Z,27.4
2022-08-12T01:14:40.883Z,27.36
2022-08-12T01:20:26.235Z,27.31
2022-08-12T01:26:10.235Z,27.25
2022-08-12T01:31:56.810Z,27.24
2022-08-12T01:37:45.094Z,27.19
2022-08-12T01:43:30.287Z,27.18
2022-08-12T01:49:21.671Z,27.14
2022-08-12T01:55:06.653Z,27.09
2022-08-12T02:00:56.153Z,27.02
2022-08-12T02:06:47.421Z,26.99
2022-08-12T02:12:37.607Z,26.94
2022-08-12T02:18:25.834Z,26.91
2022-08-12T02:24:11.822Z,26.83
2022-08-12T02:29:55.327Z,26.78
2022-08-12T02:35:39.037Z,26.74
2022-08-12T02:41:25.310Z,26.7
2022-08-12T02:47:18.182Z,26.64
2022-08-12T02:53:14.498Z,26.61
2022-08-12T02:58:58.097Z,26.54
2022-08-12T03:04:45.986Z,26.48
2022-08-12T03:10:37.472Z,26.43
2022-08-12T03:16:33.137Z,26.41
2022-08-12T03:22:22.278Z,26.36
2022-08-12T03:28:08.200Z,26.3
2022-08-12T03:34:06.740Z,26.28
2022-08-12T03:39:50.314Z,26.2
2022-08-12T03:45:35.176Z,26.16
2022-08-12T03:51:34.995Z,26.12
2022-08-12T03:57:18.582Z,26.03
2022-08-12T04:03:02.219Z,25.98
2022-08-12T04:08:48.423Z,25.93
2022-08-12T04:14:32.488Z,25.91
2022-08-12T04:20:16.454Z,25.85
2022-08-12T04:25:59.745Z,25.8
2022-08-12T04:31:43.551Z,25.75
2022-08-12T04:37:27.089Z,25.72
2022-08-12T04:43:54.265Z,25.73
2022-08-12T04:49:30.292Z,25.75
2022-08-12T04:55:13.926Z,25.72
2022-08-12T05:00:57.217Z,25.7
2022-08-12T05:06:40.722Z,25.71
2022-08-12T05:12:25.493Z,25.72
2022-08-12T05:18:16.797Z,25.72
2022-08-12T05:24:03.164Z,25.74
2022-08-12T05:30:06.058Z,25.54
2022-08-12T05:35:50.115Z,25.35
2022-08-12T05:41:34.725Z,25.18
2022-08-12T05:47:18.331Z,25.14
2022-08-12T05:53:06.838Z,25.19
2022-08-12T05:58:50.670Z,25.25
2022-08-12T06:04:34.171Z,25.28
2022-08-12T06:10:18.622Z,25.28
2022-08-12T06:16:16.594Z,25.4
2022-08-12T06:21:59.965Z,25.52
2022-08-12T06:28:05.808Z,25.66
2022-08-12T06:33:56.243Z,25.78
2022-08-12T06:39:53.729Z,25.85
2022-08-12T06:45:45.201Z,25.91
2022-08-12T06:51:31.777Z,26
2022-08-12T06:57:57.961Z,26.16
2022-08-12T07:03:22.975Z,26.35
2022-08-12T07:09:07.195Z,26.52
2022-08-12T07:15:00.757Z,26.74
2022-08-12T07:20:53.538Z,26.9
2022-08-12T07:26:36.227Z,27.08
2022-08-12T07:32:27.988Z,27.27
2022-08-12T07:38:28.786Z,27.49
2022-08-12T07:44:14.504Z,27.71
2022-08-12T07:50:05.971Z,27.91
2022-08-12T07:55:49.391Z,28.12
2022-08-12T08:01:32.971Z,28.3
2022-08-12T08:07:16.791Z,28.5
2022-08-12T08:13:00.349Z,28.71
2022-08-12T08:18:44.559Z,28.91
2022-08-12T08:24:28.338Z,29.1
2022-08-12T08:30:12.847Z,29.28
2022-08-12T08:35:56.350Z,29.47
2022-08-12T08:42:13.544Z,29.64
2022-08-12T08:47:48.119Z,29.86
2022-08-12T08:53:31.749Z,30.01
2022-08-12T08:59:16.043Z,30.21
2022-08-12T09:05:10.286Z,30.38
2022-08-12T09:11:02.131Z,30.55
2022-08-12T09:16:51.633Z,30.71
2022-08-12T09:22:38.973Z,30.9
2022-08-12T09:28:31.035Z,31.05
2022-08-12T09:34:24.909Z,31.18
2022-08-12T09:40:55.487Z,31.36
2022-08-12T09:46:26.338Z,31.57
2022-08-12T09:52:14.820Z,31.67
2022-08-12T09:58:07.246Z,31.79
2022-08-12T10:04:05.711Z,31.93
2022-08-12T10:09:57.729Z,32.07
2022-08-12T10:16:01.383Z,32.2
2022-08-12T10:21:46.250Z,32.33
2022-08-12T10:27:39.586Z,32.45
2022-08-12T10:33:43.785Z,32.61
2022-08-12T10:40:03.469Z,32.74
2022-08-12T10:45:50.373Z,32.87
2022-08-12T10:51:52.137Z,33.02
2022-08-12T10:58:13.982Z,33.18
2022-08-12T11:04:21.957Z,33.36
2022-08-12T11:09:56.285Z,33.5
2022-08-12T11:16:04.430Z,33.63
2022-08-12T11:21:55.145Z,33.76
2022-08-12T11:27:51.194Z,33.92
2022-08-12T11:34:03.575Z,34
2022-08-12T11:40:02.871Z,34.14
2022-08-12T11:45:42.382Z,34.28
2022-08-12T11:51:40.146Z,34.39
2022-08-12T11:58:09.341Z,34.48
2022-08-12T12:03:40.562Z,34.61
2022-08-12T12:09:27.406Z,34.72
2022-08-12T12:15:37.418Z,34.89
2022-08-12T12:21:47.760Z,35
2022-08-12T12:27:36.809Z,35.12
2022-08-12T12:33:46.137Z,35.25
2022-08-12T12:39:54.961Z,35.37
2022-08-12T12:45:36.998Z,35.49
2022-08-12T12:51:49.700Z,35.59
2022-08-12T12:57:59.673Z,36.03
2022-08-12T13:03:49.257Z,36.33
2022-08-12T13:09:35.927Z,36.39
2022-08-12T13:15:24.859Z,36.3
2022-08-12T13:21:33.000Z,36.29
2022-08-12T13:27:28.158Z,36.31
2022-08-12T13:33:18.821Z,36.4
2022-08-12T13:39:04.676Z,36.47
2022-08-12T13:44:50.662Z,36.57
2022-08-12T13:50:41.080Z,36.65
2022-08-12T13:56:27.006Z,36.76
2022-08-12T14:02:17.866Z,36.9
2022-08-12T14:08:07.710Z,37
2022-08-12T14:14:02.914Z,37.12
2022-08-12T14:19:55.718Z,37.2
2022-08-12T14:25:43.050Z,37.28
2022-08-12T14:31:31.678Z,37.37
2022-08-12T14:37:55.157Z,37.47
2022-08-12T14:43:25.713Z,37.59
2022-08-12T14:50:01.630Z,37.62
2022-08-12T15:01:34.693Z,37.41
2022-08-12T15:07:33.065Z,37.36
2022-08-12T15:13:23.114Z,37.35
2022-08-12T15:20:00.133Z,37.31
2022-08-12T15:25:17.606Z,37.27
2022-08-12T15:31:09.682Z,37.21
2022-08-12T15:37:09.156Z,37.27
2022-08-12T15:43:08.205Z,37.42
2022-08-12T15:48:53.337Z,37.47
2022-08-12T15:54:44.768Z,37.62
2022-08-12T16:00:34.959Z,37.72
2022-08-12T16:06:30.889Z,37.79
2022-08-12T16:12:22.462Z,37.93
2022-08-12T16:18:15.586Z,38.06
2022-08-12T16:24:08.112Z,38.17
2022-08-12T16:29:55.103Z,38.28
2022-08-12T16:35:40.110Z,38.4
2022-08-12T16:41:38.329Z,38.56
2022-08-12T16:47:23.118Z,38.72
2022-08-12T16:53:21.296Z,38.91
2022-08-12T16:59:24.075Z,39.22
2022-08-12T17:05:18.503Z,39.69
2022-08-12T17:11:09.862Z,40.14
2022-08-12T17:17:01.632Z,40.63
2022-08-12T17:23:04.803Z,41.14
2022-08-12T17:28:57.429Z,41.54
2022-08-12T17:34:41.222Z,41.8
2022-08-12T17:40:35.393Z,41.83
2022-08-12T17:46:23.792Z,41.71
2022-08-12T17:52:15.666Z,41.44
2022-08-12T17:58:00.164Z,40.99
2022-08-12T18:03:57.400Z,39.3
2022-08-12T18:09:49.401Z,38.14
2022-08-12T18:16:03.768Z,37.3
2022-08-12T18:22:01.009Z,36.61
2022-08-12T18:27:45.030Z,36.03
2022-08-12T18:33:46.635Z,35.56
2022-08-12T18:39:30.071Z,35.29
2022-08-12T18:45:27.964Z,35.12
2022-08-12T18:51:34.078Z,34.92
2022-08-12T18:57:46.268Z,34.69
2022-08-12T19:03:39.328Z,34.47
2022-08-12T19:09:23.477Z,34.21
2022-08-12T19:15:27.107Z,34
2022-08-12T19:21:23.422Z,33.79
2022-08-12T19:27:08.461Z,33.55
2022-08-12T19:32:57.042Z,33.38
2022-08-12T19:38:46.729Z,33.2
2022-08-12T19:44:38.818Z,33.06
2022-08-12T19:50:27.931Z,32.73
2022-08-12T19:56:16.066Z,32.27
2022-08-12T20:02:07.616Z,31.97
2022-08-12T20:07:56.776Z,31.63
2022-08-12T20:13:42.093Z,31.41
2022-08-12T20:19:28.757Z,31.14
2022-08-12T20:25:52.110Z,30.95
2022-08-12T20:31:33.521Z,30.69
2022-08-12T20:37:18.782Z,30.44
2022-08-12T20:43:23.213Z,30.3
2022-08-12T20:49:14.566Z,30.1
2022-08-12T20:55:01.675Z,29.92
2022-08-12T21:00:45.121Z,29.72
2022-08-12T21:06:32.347Z,29.53
2022-08-12T21:12:24.656Z,29.19
2022-08-12T21:18:22.610Z,28.93
2022-08-12T21:24:13.583Z,28.64
2022-08-12T21:29:59.414Z,28.4
2022-08-12T21:35:44.206Z,28.23
2022-08-12T21:41:33.669Z,28.03
2022-08-12T21:47:23.755Z,27.82
2022-08-12T21:53:10.788Z,27.63
2022-08-12T21:59:01.846Z,27.59
2022-08-12T22:04:56.126Z,27.65
2022-08-12T22:10:40.314Z,27.78
2022-08-12T22:16:30.802Z,27.91
2022-08-12T22:22:30.346Z,28.08
2022-08-12T22:28:16.959Z,28.16
2022-08-12T22:34:07.342Z,28.23
2022-08-12T22:40:00.898Z,28.29
2022-08-12T22:45:56.404Z,28.32
2022-08-12T22:51:42.979Z,28.32
2022-08-12T22:57:48.863Z,28.33
2022-08-12T23:03:47.625Z,28.3
2022-08-12T23:09:48.020Z,28.3
2022-08-12T23:15:32.282Z,28.28
2022-08-12T23:21:17.851Z,28.27
2022-08-12T23:27:18.193Z,28.22
2022-08-12T23:33:02.007Z,28.15
2022-08-12T23:39:01.684Z,28.1
2022-08-12T23:44:52.699Z,28.05
2022-08-12T23:50:36.278Z,27.99
2022-08-12T23:56:19.882Z,27.93
